Aeroporto :
LOGIN :

Iscrizione | Disclaimer

   EN    FR    IT 

 










Sommario :    VFR   VFR Marginale   IFR   IFR Intensivo   IFR Molto Intensivo
Visibilità : 
Base nubi : 
>= 8 km
>= 3000ft
5 / 8 km
1000 / 3000 ft
1500m / 5 km
500 / 1000 ft
800 / 1500m
200 / 500 ft
< 800m
< 200 ft
Simboli :   Temporali  Nebbia  Neve Forte  Precipitazioni Forti  Vento > 20 kt
SIGMETs :   Varie  Temporali  Ghiacco  Turbolenza  Onda orograficha  Ceneri Vulcaniche






- Altitudine del aeroporto : 120 ft
- Codice IATA : MME


EGNV - Durham Tees valley

ULTIMO METAR :
  • 081350Z 05009KT 9999 FEW018 BKN036 14/10 Q1016

METARs OBSOLETI :
  • 081320Z 06010KT 9999 SCT023 BKN040 15/10 Q1016
  • 081250Z 04011KT 9999 SCT022 SCT040 15/10 Q1016
  • 081220Z 04013KT 9999 SCT022 SCT036 15/10 Q1016
  • 081150Z 05011KT 010V080 9999 SCT022 SCT042 15/10 Q1016
  • 081120Z 05012KT 020V090 9999 SCT020 SCT042 16/10 Q1016

TAF TAF EGNV
Valido dal 08 a 09 ore il 08 a 18 ore UTC


080810Z 0809/0818 09010KT 9999 SCT025
PROB30
TEMPO 0809/0818 7000 SHRA BKN014
ATIS : +44 9012 018 111



MetMap, La meteo Aeronautica in un colpo d'occhio ! - Copyright ORBIFLY Dicembre 2007 - Disclaimer

ORBIFLY MET'MAP TEAM :

Programmazione e sviluppo : Alexandra Zaïnal
Concezione : Baudouin d'Aumeries
Aiuto per la programmazione : Marc-Olivier Méhu
Supporto tecnico e logistico : Manuel Goepfert
Aiuto per la traduzione : Arnaldo La Scala

Contatto : metmap@orbifly.com




FONTI E CREDITI :

   NOAA